Mattawamkeag, Maine
Current Conditions -  °F | °C
As of 4:44 PM on Friday 24 Oct 2014 (Local Time) from KMLT Reporting Station
Light Rain Light Rain  
Wind Chill: 39°   Ceiling: 1800
Heat Index: 44°   Visibility: 10mi
Dew Point: 40°   Wind: 9mph
Humidity: 85%   Direction: 350°N
Pressure: 29.67"   Gusts: NA
Location:  45.51°N, 68.35°W
Report Text: KMLT 242044Z AUTO 35008KT 10SM -RA SCT012 BKN018 OVC036 07/04 A2967 RMK AO2 RAB26 P0000 T00670044
Loading
Personal Weather Stations






























Interactive Weather Map
Tropical Storm Tracking
New forecast layout! Learn more

10-Day Weather Forecast

Advertisements
Track Severe Weather on mobile